createdAt,value
2019-06-10T00:00:36.929Z,6.37
2019-06-10T00:03:11.476Z,6.95
2019-06-10T00:05:44.947Z,6.08
2019-06-10T00:08:20.706Z,5.85
2019-06-10T00:10:53.644Z,5.40
2019-06-10T00:13:27.614Z,5.33
2019-06-10T00:16:02.662Z,5.37
2019-06-10T00:18:42.168Z,5.50
2019-06-10T00:21:11.289Z,6.92
2019-06-10T00:23:44.536Z,5.47
2019-06-10T00:26:17.632Z,5.55
2019-06-10T00:28:51.884Z,5.87
2019-06-10T00:31:24.912Z,6.20
2019-06-10T00:33:59.291Z,6.33
2019-06-10T00:36:32.792Z,5.97
2019-06-10T00:39:08.938Z,6.60
2019-06-10T00:41:43.521Z,7.00
2019-06-10T00:44:16.872Z,6.15
2019-06-10T00:46:51.660Z,6.47
2019-06-10T00:49:25.978Z,6.17
2019-06-10T00:52:01.239Z,6.10
2019-06-10T00:54:34.783Z,5.80
2019-06-10T00:57:10.030Z,5.97
2019-06-10T00:59:43.720Z,5.53
2019-06-10T01:02:16.983Z,6.53
2019-06-10T01:04:51.387Z,6.40
2019-06-10T01:07:24.744Z,6.67
2019-06-10T01:10:00.979Z,8.50
2019-06-10T01:12:33.653Z,6.85
2019-06-10T01:15:07.427Z,6.97
2019-06-10T01:17:41.725Z,6.37
2019-06-10T01:20:16.116Z,7.17
2019-06-10T01:22:51.500Z,7.45
2019-06-10T01:25:24.068Z,9.03
2019-06-10T01:27:57.255Z,8.80
2019-06-10T01:30:31.224Z,7.80
2019-06-10T01:35:37.901Z,8.53
2019-06-10T01:38:13.453Z,8.30
2019-06-10T01:40:46.039Z,8.25
2019-06-10T01:43:21.230Z,8.80
2019-06-10T01:45:53.906Z,8.00
2019-06-10T01:48:40.466Z,7.65
2019-06-10T01:51:02.044Z,6.35
2019-06-10T01:53:35.251Z,7.53
2019-06-10T01:56:10.378Z,6.83
2019-06-10T01:58:43.627Z,7.33
2019-06-10T02:01:23.356Z,6.22
2019-06-10T02:03:56.425Z,5.95
2019-06-10T02:06:31.494Z,6.72
2019-06-10T02:09:07.322Z,8.18
2019-06-10T02:11:41.363Z,8.33
2019-06-10T02:14:17.761Z,7.12
2019-06-10T02:16:51.609Z,7.60
2019-06-10T02:19:25.060Z,6.80
2019-06-10T02:21:58.153Z,7.03
2019-06-10T02:24:31.781Z,7.37
2019-06-10T02:27:06.129Z,6.90
2019-06-10T02:29:41.218Z,8.55
2019-06-10T02:32:20.076Z,8.50
2019-06-10T02:35:03.536Z,6.78
2019-06-10T02:37:31.745Z,7.30
2019-06-10T02:40:04.087Z,8.00
2019-06-10T02:42:37.276Z,8.75
2019-06-10T02:45:13.785Z,7.70
2019-06-10T02:47:45.716Z,9.13
2019-06-10T02:50:32.089Z,8.05
2019-06-10T02:52:58.289Z,7.87
2019-06-10T02:55:35.018Z,8.28
2019-06-10T02:58:09.633Z,7.90
2019-06-10T03:00:48.273Z,8.75
2019-06-10T03:03:22.837Z,7.10
2019-06-10T03:05:53.627Z,6.60
2019-06-10T03:08:31.611Z,6.92
2019-06-10T03:11:04.125Z,6.20
2019-06-10T03:13:37.154Z,6.08
2019-06-10T03:16:28.123Z,6.17
2019-06-10T03:19:03.047Z,6.12
2019-06-10T03:21:36.214Z,6.77
2019-06-10T03:24:09.316Z,5.87
2019-06-10T03:26:42.833Z,5.12
2019-06-10T03:29:16.514Z,6.90
2019-06-10T03:31:49.635Z,5.33
2019-06-10T03:34:30.740Z,6.10
2019-06-10T03:36:57.996Z,6.20
2019-06-10T03:39:32.355Z,6.43
2019-06-10T03:42:05.269Z,6.62
2019-06-10T03:44:38.455Z,5.45
2019-06-10T03:47:12.170Z,5.47
2019-06-10T03:49:52.400Z,5.90
2019-06-10T03:52:19.573Z,6.28
2019-06-10T03:54:52.637Z,5.65
2019-06-10T03:57:26.945Z,7.33
2019-06-10T04:00:02.258Z,6.62
2019-06-10T04:02:36.438Z,6.75
2019-06-10T04:05:13.085Z,7.77
2019-06-10T04:10:17.990Z,8.50
2019-06-10T04:12:52.373Z,7.17
2019-06-10T04:15:28.363Z,8.70
2019-06-10T04:18:00.044Z,9.05
2019-06-10T04:20:34.030Z,9.65
2019-06-10T04:23:07.334Z,10.43
2019-06-10T04:25:43.578Z,8.98
2019-06-10T04:28:17.749Z,8.48
2019-06-10T04:30:53.207Z,6.87
2019-06-10T04:33:26.194Z,6.70
2019-06-10T04:38:32.964Z,7.50
2019-06-10T04:41:06.427Z,7.33
2019-06-10T04:43:40.259Z,7.60
2019-06-10T04:46:13.379Z,8.10
2019-06-10T04:48:47.278Z,8.40
2019-06-10T04:51:22.926Z,7.92
2019-06-10T04:53:54.851Z,8.05
2019-06-10T04:56:29.333Z,7.80
2019-06-10T04:59:03.262Z,7.40
2019-06-10T05:01:36.758Z,7.55
2019-06-10T05:04:12.576Z,7.95
2019-06-10T05:06:45.686Z,7.70
2019-06-10T05:09:19.179Z,8.53
2019-06-10T05:11:52.356Z,7.47
2019-06-10T05:14:28.538Z,7.77
2019-06-10T05:17:02.255Z,7.62
2019-06-10T05:19:38.541Z,9.10
2019-06-10T05:22:12.507Z,8.10
2019-06-10T05:24:45.657Z,9.15
2019-06-10T05:27:20.455Z,8.15
2019-06-10T05:29:53.658Z,7.55
2019-06-10T05:32:27.842Z,7.60
2019-06-10T05:35:03.489Z,7.78
2019-06-10T05:37:36.057Z,8.05
2019-06-10T05:40:09.166Z,8.63
2019-06-10T05:42:42.742Z,7.28
2019-06-10T05:45:16.142Z,7.70
2019-06-10T05:47:49.436Z,8.60
2019-06-10T05:50:24.049Z,7.78
2019-06-10T05:52:57.220Z,9.18
2019-06-10T05:55:33.479Z,7.53
2019-06-10T05:58:06.127Z,8.25
2019-06-10T06:00:42.847Z,7.75
2019-06-10T06:03:16.155Z,8.15
2019-06-10T06:05:48.992Z,7.87
2019-06-10T06:08:22.845Z,7.78
2019-06-10T06:10:56.211Z,8.13
2019-06-10T06:13:32.702Z,7.75
2019-06-10T06:16:06.021Z,7.78
2019-06-10T06:18:41.981Z,7.22
2019-06-10T06:21:25.317Z,8.98
2019-06-10T06:23:52.815Z,7.95
2019-06-10T06:26:28.371Z,8.53
2019-06-10T06:29:02.270Z,8.43
2019-06-10T06:31:36.494Z,7.95
2019-06-10T06:34:13.737Z,11.18
2019-06-10T06:36:46.846Z,11.60
2019-06-10T06:39:19.692Z,11.00
2019-06-10T06:41:53.650Z,8.73
2019-06-10T06:44:27.559Z,8.63
2019-06-10T06:47:02.711Z,9.55
2019-06-10T06:49:37.098Z,12.00
2019-06-10T06:52:12.834Z,10.25
2019-06-10T06:54:46.148Z,7.30
2019-06-10T06:57:19.327Z,8.50
2019-06-10T06:59:52.713Z,7.47
2019-06-10T07:02:25.772Z,8.45
2019-06-10T07:04:58.700Z,8.35
2019-06-10T07:07:33.084Z,7.75
2019-06-10T07:10:09.031Z,8.10
2019-06-10T07:12:43.933Z,8.43
2019-06-10T07:15:19.330Z,7.70
2019-06-10T07:20:25.655Z,7.70
2019-06-10T07:22:58.698Z,7.55
2019-06-10T07:25:34.369Z,7.80
2019-06-10T07:28:06.647Z,7.03
2019-06-10T07:30:47.266Z,8.28
2019-06-10T07:33:15.294Z,8.65
2019-06-10T07:35:48.094Z,7.95
2019-06-10T07:38:24.031Z,8.20
2019-06-10T07:40:56.038Z,7.60
2019-06-10T07:43:29.382Z,7.15
2019-06-10T07:46:03.618Z,7.33
2019-06-10T07:48:39.558Z,7.67
2019-06-10T07:51:13.397Z,7.65
2019-06-10T07:53:46.898Z,7.17
2019-06-10T07:56:19.894Z,7.50
2019-06-10T07:58:53.163Z,8.00
2019-06-10T08:01:26.591Z,7.47
2019-06-10T08:03:59.539Z,9.85
2019-06-10T08:06:34.773Z,7.83
2019-06-10T08:09:07.970Z,7.45
2019-06-10T08:11:44.936Z,6.95
2019-06-10T08:14:16.298Z,7.95
2019-06-10T08:16:52.902Z,6.95
2019-06-10T08:19:34.320Z,6.78
2019-06-10T08:22:02.903Z,6.53
2019-06-10T08:24:37.326Z,7.15
2019-06-10T08:27:12.082Z,6.72
2019-06-10T08:29:48.047Z,6.33
2019-06-10T08:32:24.367Z,5.60
2019-06-10T08:34:56.618Z,7.03
2019-06-10T08:37:33.044Z,6.17
2019-06-10T08:40:07.053Z,6.72
2019-06-10T08:42:43.621Z,5.87
2019-06-10T08:45:17.346Z,6.95
2019-06-10T08:47:50.044Z,6.47
2019-06-10T08:50:24.883Z,6.47
2019-06-10T08:53:10.360Z,7.22
2019-06-10T08:55:35.404Z,5.58
2019-06-10T08:58:13.016Z,5.60
2019-06-10T09:00:49.374Z,6.20
2019-06-10T09:03:23.310Z,7.42
2019-06-10T09:05:58.451Z,5.25
2019-06-10T09:08:32.854Z,5.90
2019-06-10T09:11:05.993Z,6.60
2019-06-10T09:13:40.754Z,5.80
2019-06-10T09:16:19.167Z,4.53
2019-06-10T09:18:55.018Z,5.17
2019-06-10T09:21:26.566Z,5.83
2019-06-10T09:24:01.255Z,5.22
2019-06-10T09:26:34.210Z,4.58
2019-06-10T09:29:07.685Z,4.70
2019-06-10T09:31:46.713Z,9.13
2019-06-10T09:34:36.746Z,5.50
2019-06-10T09:37:12.434Z,5.42
2019-06-10T09:39:51.836Z,6.72
2019-06-10T09:42:23.878Z,7.30
2019-06-10T09:44:57.178Z,6.05
2019-06-10T09:47:34.012Z,5.72
2019-06-10T09:50:08.151Z,4.60
2019-06-10T09:52:47.456Z,5.30
2019-06-10T09:55:23.320Z,4.83
2019-06-10T09:57:59.913Z,4.87
2019-06-10T10:00:47.531Z,4.67
2019-06-10T10:03:19.605Z,4.25
2019-06-10T10:06:10.087Z,4.08
2019-06-10T10:08:32.887Z,5.65
2019-06-10T10:11:06.026Z,5.30
2019-06-10T10:13:39.141Z,4.72
2019-06-10T10:16:13.142Z,4.40
2019-06-10T10:18:50.439Z,4.47
2019-06-10T10:24:06.942Z,4.90
2019-06-10T10:26:30.573Z,5.67
2019-06-10T10:29:05.164Z,3.85
2019-06-10T10:31:39.386Z,3.65
2019-06-10T10:34:13.643Z,4.43
2019-06-10T10:36:48.446Z,4.40
2019-06-10T10:39:25.168Z,4.85
2019-06-10T10:41:58.111Z,4.78
2019-06-10T10:44:32.003Z,5.65
2019-06-10T10:47:05.431Z,6.80
2019-06-10T10:49:38.838Z,6.65
2019-06-10T10:52:13.750Z,3.80
2019-06-10T10:54:47.946Z,3.72
2019-06-10T10:57:23.153Z,3.33
2019-06-10T10:59:56.389Z,3.55
2019-06-10T11:02:32.059Z,4.22
2019-06-10T11:05:06.088Z,3.80
2019-06-10T11:07:42.293Z,3.70
2019-06-10T11:10:15.488Z,3.85
2019-06-10T11:12:53.731Z,4.00
2019-06-10T11:15:29.039Z,4.25
2019-06-10T11:18:05.926Z,4.92
2019-06-10T11:20:39.129Z,4.22
2019-06-10T11:23:12.459Z,3.70
2019-06-10T11:25:45.834Z,4.03
2019-06-10T11:28:22.807Z,4.40
2019-06-10T11:30:57.399Z,4.75
2019-06-10T11:36:04.759Z,4.33
2019-06-10T11:38:37.879Z,4.40
2019-06-10T11:41:13.386Z,4.37
2019-06-10T11:43:50.489Z,3.60
2019-06-10T11:46:23.851Z,3.40
2019-06-10T11:48:58.919Z,3.10
2019-06-10T11:51:33.025Z,3.20
2019-06-10T11:56:39.129Z,4.25
2019-06-10T11:59:13.550Z,3.90
2019-06-10T12:01:48.971Z,3.92
2019-06-10T12:04:23.888Z,4.90
2019-06-10T12:06:57.105Z,3.50
2019-06-10T12:09:33.367Z,4.22
2019-06-10T12:12:05.893Z,5.05
2019-06-10T12:14:38.988Z,3.30
2019-06-10T12:17:24.872Z,4.10
2019-06-10T12:19:49.783Z,4.08
2019-06-10T12:22:22.886Z,4.03
2019-06-10T12:25:24.195Z,3.95
2019-06-10T12:27:32.827Z,3.50
2019-06-10T12:30:09.483Z,2.95
2019-06-10T12:32:44.841Z,4.58
2019-06-10T12:35:18.130Z,3.72
2019-06-10T12:37:56.270Z,3.42
2019-06-10T12:40:27.366Z,3.02
2019-06-10T12:43:06.791Z,3.08
2019-06-10T12:45:38.866Z,2.92
2019-06-10T12:48:14.466Z,2.87
2019-06-10T12:50:47.922Z,3.72
2019-06-10T12:53:22.912Z,4.28
2019-06-10T12:55:57.249Z,4.40
2019-06-10T12:58:33.747Z,3.80
2019-06-10T13:01:08.015Z,4.08
2019-06-10T13:03:43.747Z,4.30
2019-06-10T13:06:17.380Z,4.40
2019-06-10T13:08:52.978Z,3.00
2019-06-10T13:11:25.267Z,2.80
2019-06-10T13:14:00.036Z,3.47
2019-06-10T13:16:34.361Z,3.58
2019-06-10T13:19:14.545Z,3.47
2019-06-10T13:21:49.778Z,3.77
2019-06-10T13:24:23.072Z,3.70
2019-06-10T13:26:56.546Z,3.92
2019-06-10T13:29:33.151Z,3.08
2019-06-10T13:32:07.686Z,3.40
2019-06-10T13:34:43.916Z,3.77
2019-06-10T13:37:17.091Z,4.05
2019-06-10T13:39:52.307Z,2.90
2019-06-10T13:42:27.752Z,3.05
2019-06-10T13:45:06.768Z,4.03
2019-06-10T13:47:42.840Z,3.72
2019-06-10T13:50:19.210Z,3.22
2019-06-10T13:52:52.189Z,3.65
2019-06-10T13:55:27.056Z,3.25
2019-06-10T13:58:03.931Z,3.85
2019-06-10T14:00:45.841Z,3.30
2019-06-10T14:03:15.886Z,3.85
2019-06-10T14:05:46.787Z,3.95
2019-06-10T14:10:55.146Z,3.02
2019-06-10T14:13:33.264Z,3.40
2019-06-10T14:16:07.603Z,3.75
2019-06-10T14:18:42.375Z,3.27
2019-06-10T14:21:18.734Z,3.37
2019-06-10T14:23:52.100Z,4.10
2019-06-10T14:26:36.770Z,3.15
2019-06-10T14:29:02.894Z,4.37
2019-06-10T14:31:43.559Z,4.22
2019-06-10T14:34:18.036Z,3.37
2019-06-10T14:36:52.484Z,3.70
2019-06-10T14:39:25.839Z,3.70
2019-06-10T14:41:59.442Z,3.45
2019-06-10T14:44:33.040Z,3.00
2019-06-10T14:47:06.580Z,3.93
2019-06-10T14:49:42.341Z,4.50
2019-06-10T14:52:16.947Z,3.35
2019-06-10T14:54:50.071Z,2.72
2019-06-10T14:57:24.042Z,3.17
2019-06-10T14:59:57.466Z,2.67
2019-06-10T15:02:33.304Z,3.15
2019-06-10T15:05:07.226Z,4.15
2019-06-10T15:07:42.288Z,4.20
2019-06-10T15:10:17.693Z,3.90
2019-06-10T15:12:52.924Z,3.70
2019-06-10T15:15:29.619Z,3.33
2019-06-10T15:18:03.116Z,3.02
2019-06-10T15:20:37.257Z,3.35
2019-06-10T15:23:11.487Z,2.90
2019-06-10T15:25:52.442Z,4.22
2019-06-10T15:28:21.107Z,4.95
2019-06-10T15:30:55.093Z,3.92
2019-06-10T15:33:32.677Z,3.77
2019-06-10T15:36:06.050Z,4.58
2019-06-10T15:38:39.281Z,4.33
2019-06-10T15:41:18.298Z,3.58
2019-06-10T15:43:52.975Z,8.20
2019-06-10T15:46:25.565Z,4.28
2019-06-10T15:48:58.604Z,4.83
2019-06-10T15:51:33.129Z,3.17
2019-06-10T15:54:06.319Z,3.87
2019-06-10T15:56:49.915Z,4.08
2019-06-10T15:59:18.630Z,4.33
2019-06-10T16:01:53.114Z,3.72
2019-06-10T16:04:29.915Z,3.80
2019-06-10T16:07:03.170Z,4.17
2019-06-10T16:09:36.416Z,4.45
2019-06-10T16:12:14.718Z,4.60
2019-06-10T16:14:46.358Z,8.03
2019-06-10T16:17:19.359Z,4.53
2019-06-10T16:19:53.366Z,3.70
2019-06-10T16:22:26.593Z,6.97
2019-06-10T16:24:59.721Z,3.80
2019-06-10T16:27:47.415Z,3.75
2019-06-10T16:30:09.075Z,9.40
2019-06-10T16:32:46.323Z,6.05
2019-06-10T16:35:18.882Z,4.85
2019-06-10T16:37:54.561Z,5.85
2019-06-10T16:40:27.363Z,4.90
2019-06-10T16:43:00.583Z,5.22
2019-06-10T16:45:34.095Z,3.98
2019-06-10T16:48:08.386Z,4.67
2019-06-10T16:50:42.605Z,4.70
2019-06-10T16:55:48.204Z,4.62
2019-06-10T16:58:27.935Z,4.85
2019-06-10T17:01:02.952Z,4.30
2019-06-10T17:03:35.224Z,5.12
2019-06-10T17:06:08.341Z,6.33
2019-06-10T17:08:43.510Z,8.53
2019-06-10T17:11:16.619Z,10.05
2019-06-10T17:13:52.562Z,8.33
2019-06-10T17:16:27.323Z,8.45
2019-06-10T17:19:02.278Z,6.45
2019-06-10T17:21:39.325Z,5.72
2019-06-10T17:24:13.337Z,6.17
2019-06-10T17:26:46.447Z,4.55
2019-06-10T17:29:19.826Z,3.70
2019-06-10T17:31:53.247Z,3.50
2019-06-10T17:34:28.062Z,2.92
2019-06-10T17:37:03.111Z,3.90
2019-06-10T17:39:36.367Z,3.25
2019-06-10T17:42:12.246Z,3.75
2019-06-10T17:44:45.049Z,4.00
2019-06-10T17:47:18.177Z,4.50
2019-06-10T17:49:51.383Z,4.00
2019-06-10T17:52:25.956Z,5.62
2019-06-10T17:54:59.112Z,4.95
2019-06-10T17:57:36.065Z,5.22
2019-06-10T18:00:14.102Z,6.58
2019-06-10T18:02:45.272Z,7.10
2019-06-10T18:05:18.941Z,6.42
2019-06-10T18:07:52.814Z,5.25
2019-06-10T18:10:27.595Z,7.35
2019-06-10T18:13:13.142Z,7.12
2019-06-10T18:15:36.944Z,7.40
2019-06-10T18:18:12.818Z,7.10
2019-06-10T18:20:45.868Z,9.58
2019-06-10T18:23:22.899Z,9.43
2019-06-10T18:25:55.888Z,9.90
2019-06-10T18:28:31.355Z,10.40
2019-06-10T18:31:06.103Z,10.65
2019-06-10T18:33:42.484Z,10.70
2019-06-10T18:36:17.286Z,11.85
2019-06-10T18:38:52.699Z,12.47
2019-06-10T18:41:27.848Z,13.03
2019-06-10T18:44:22.596Z,13.68
2019-06-10T18:46:51.885Z,12.82
2019-06-10T18:49:26.425Z,13.15
2019-06-10T18:52:00.727Z,12.28
2019-06-10T18:54:37.353Z,13.83
2019-06-10T18:57:11.660Z,14.13
2019-06-10T18:59:45.717Z,12.18
2019-06-10T19:02:19.668Z,13.70
2019-06-10T19:04:54.784Z,13.35
2019-06-10T19:07:33.485Z,12.63
2019-06-10T19:10:09.209Z,11.30
2019-06-10T19:12:44.583Z,12.50
2019-06-10T19:15:20.413Z,11.65
2019-06-10T19:17:55.409Z,9.85
2019-06-10T19:20:33.592Z,13.25
2019-06-10T19:23:07.071Z,9.68
2019-06-10T19:28:18.592Z,9.23
2019-06-10T19:33:28.444Z,7.95
2019-06-10T19:36:24.833Z,7.67
2019-06-10T19:41:36.607Z,8.73
2019-06-10T19:44:10.250Z,7.28
2019-06-10T19:49:18.673Z,8.50
2019-06-10T19:51:53.554Z,6.08
2019-06-10T19:54:28.321Z,6.22
2019-06-10T19:57:04.005Z,6.90
2019-06-10T20:00:02.768Z,5.87
2019-06-10T20:02:13.731Z,4.97
2019-06-10T20:04:47.766Z,5.87
2019-06-10T20:07:23.066Z,5.93
2019-06-10T20:09:56.541Z,5.78
2019-06-10T20:12:32.316Z,5.80
2019-06-10T20:15:07.805Z,6.47
2019-06-10T20:17:41.680Z,5.95
2019-06-10T20:20:14.745Z,6.62
2019-06-10T20:22:48.169Z,6.25
2019-06-10T20:25:22.371Z,6.67
2019-06-10T20:27:56.209Z,6.65
2019-06-10T20:30:29.639Z,5.90
2019-06-10T20:33:03.539Z,5.40
2019-06-10T20:35:37.522Z,6.67
2019-06-10T20:38:13.152Z,5.75
2019-06-10T20:40:47.155Z,6.62
2019-06-10T20:43:22.407Z,5.50
2019-06-10T20:45:58.230Z,6.17
2019-06-10T20:48:33.194Z,6.25
2019-06-10T20:51:07.437Z,7.50
2019-06-10T20:53:43.205Z,6.50
2019-06-10T20:56:20.120Z,5.67
2019-06-10T20:58:52.522Z,5.58
2019-06-10T21:01:25.782Z,6.03
2019-06-10T21:03:58.798Z,6.92
2019-06-10T21:06:32.683Z,6.42
2019-06-10T21:09:09.381Z,7.58
2019-06-10T21:11:45.444Z,6.92
2019-06-10T21:16:51.063Z,6.58
2019-06-10T21:21:57.226Z,6.53
2019-06-10T21:24:32.229Z,6.40
2019-06-10T21:27:05.138Z,8.40
2019-06-10T21:29:38.309Z,6.35
2019-06-10T21:32:12.442Z,6.60
2019-06-10T21:34:47.695Z,7.60
2019-06-10T21:37:22.566Z,7.50
2019-06-10T21:39:56.153Z,8.35
2019-06-10T21:42:29.338Z,8.28
2019-06-10T21:45:03.421Z,7.62
2019-06-10T21:47:36.869Z,6.95
2019-06-10T21:50:12.472Z,7.42
2019-06-10T21:52:46.137Z,7.20
2019-06-10T21:55:22.288Z,7.42
2019-06-10T21:57:55.283Z,6.20
2019-06-10T22:00:31.278Z,7.15
2019-06-10T22:03:05.543Z,7.10
2019-06-10T22:05:38.660Z,6.65
2019-06-10T22:08:12.552Z,7.30
2019-06-10T22:10:47.733Z,7.50
2019-06-10T22:13:22.373Z,6.58
2019-06-10T22:16:15.151Z,7.80
2019-06-10T22:18:49.133Z,7.45
2019-06-10T22:21:22.829Z,7.33
2019-06-10T22:23:57.134Z,7.05
2019-06-10T22:26:32.125Z,6.70
2019-06-10T22:29:15.823Z,7.15
2019-06-10T22:31:49.288Z,6.30
2019-06-10T22:34:23.599Z,7.05
2019-06-10T22:36:57.694Z,7.23
2019-06-10T22:39:32.536Z,7.20
2019-06-10T22:42:05.720Z,6.78
2019-06-10T22:44:39.120Z,6.17
2019-06-10T22:47:12.336Z,6.97
2019-06-10T22:49:45.858Z,7.10
2019-06-10T22:52:19.401Z,7.87
2019-06-10T22:54:55.136Z,6.67
2019-06-10T22:57:27.051Z,7.03
2019-06-10T23:00:02.868Z,7.42
2019-06-10T23:02:34.993Z,5.92
2019-06-10T23:05:08.185Z,6.28
2019-06-10T23:07:43.387Z,6.58
2019-06-10T23:10:16.412Z,6.37
2019-06-10T23:12:51.324Z,7.35
2019-06-10T23:15:25.507Z,7.58
2019-06-10T23:18:00.055Z,6.55
2019-06-10T23:20:33.510Z,6.65
2019-06-10T23:23:06.597Z,6.37
2019-06-10T23:25:39.669Z,6.47
2019-06-10T23:28:13.144Z,6.80
2019-06-10T23:30:47.359Z,6.92
2019-06-10T23:33:22.923Z,6.92
2019-06-10T23:35:56.538Z,6.40
2019-06-10T23:38:29.546Z,6.50
2019-06-10T23:41:03.818Z,6.08
2019-06-10T23:43:37.415Z,6.12
2019-06-10T23:46:12.092Z,6.22
2019-06-10T23:48:45.452Z,6.37
2019-06-10T23:51:22.642Z,5.78
2019-06-10T23:53:58.417Z,6.42
2019-06-10T23:56:32.587Z,6.85
2019-06-10T23:59:05.491Z,6.62
